Latest Weather Observations for Miles

IDQ60801

Issued at 12:02 am EST Thursday 1 September 2016 (issued every 30 minutes, with the page automatically refreshed every 10 minutes)

About weather observations | Map of weather stations | Latest weather observations for QLD | Other Formats
Station Details ID: 042112 Name: MILES CONSTANCE STREET Lat: -26.66 Lon: 150.18 Height: 304.8 m
Data from the previous 72 hours. | See also: Recent months at Miles
Date/Time
EST
Temp
°C
App
Temp
°C
Dew
Point
°C
Rel
Hum
%
Delta-T
°C
Wind Press
QNH
hPa
Press
MSL
hPa
Rain since
9am
mm
Dir  Spd
km/h
Gust
km/h
Spd
kts
Gust
kts
31/11:30pm 12.5 11.7 11.2 92 0.7 N 6 7 3 4 1022.1 - 0.0
31/11:00pm 12.4 11.6 11.1 92 0.7 N 6 7 3 4 1022.2 - 0.0
31/10:30pm 12.2 12.6 11.1 93 0.6 CALM 0 0 0 0 1022.6 - 0.0
31/10:00pm 12.7 13.1 11.4 92 0.7 CALM 0 0 0 0 1022.5 - 0.0
31/09:30pm 13.2 13.7 11.5 89 0.9 CALM 0 0 0 0 1022.5 - 0.0
31/09:00pm 13.1 13.5 11.4 89 0.9 CALM 0 0 0 0 1022.7 1022.6 0.0
31/08:30pm 13.6 14.1 11.6 88 1.1 CALM 0 0 0 0 1022.7 - 0.0
31/08:00pm 14.4 15.0 11.8 84 1.4 CALM 0 0 0 0 1022.8 - 0.0
31/07:30pm 15.2 15.8 11.9 81 1.8 CALM 0 0 0 0 1022.6 - 0.0
31/07:00pm 16.4 17.1 12.1 76 2.4 CALM 0 0 0 0 1022.4 - 0.0
31/06:30pm 18.0 18.3 12.1 68 3.3 NNE 2 6 1 3 1021.9 - 0.0
31/06:00pm 19.2 18.0 11.5 61 4.3 N 9 15 5 8 1021.8 1021.7 0.0
31/05:30pm 19.9 19.0 11.5 58 4.7 NNW 7 15 4 8 1021.8 - 0.0
31/05:00pm 20.7 19.4 11.4 55 5.2 N 9 15 5 8 1021.3 - 0.0
31/04:30pm 20.7 19.4 11.4 55 5.2 N 9 17 5 9 1021.4 - 0.0
31/04:00pm 21.0 19.3 11.1 53 5.5 NNW 11 20 6 11 1021.7 - 0.0
31/03:30pm 21.1 19.1 11.5 54 5.4 N 13 19 7 10 1022.2 - 0.0
31/03:00pm 22.4 20.8 11.4 49 6.2 NNW 11 20 6 11 1022.1 1022.0 0.0
31/02:30pm 20.9 18.8 11.0 53 5.5 NNW 13 22 7 12 1022.4 - 0.0
31/02:00pm 21.8 20.1 11.1 50 6.0 NW 11 19 6 10 1022.5 - 0.0
31/01:30pm 22.0 19.9 11.3 50 6.0 N 13 20 7 11 1022.9 - 0.0
31/01:00pm 21.9 19.4 11.0 50 6.1 N 15 26 8 14 1023.3 - 0.0
31/12:30pm 21.3 17.9 10.4 49 6.0 N 19 35 10 19 1023.6 - 0.0
31/12:00pm 22.4 20.1 10.3 46 6.7 NNW 13 20 7 11 1024.5 1024.4 0.0
31/11:30am 20.6 18.6 10.2 51 5.7 NNW 11 20 6 11 1024.9 - 0.0
31/11:00am 20.1 17.8 10.4 53 5.3 NNW 13 22 7 12 1025.3 - 0.0
31/10:30am 20.5 18.2 10.5 52 5.5 NNW 13 22 7 12 1025.8 - 0.0
31/10:00am 19.3 16.6 10.5 56 4.8 N 15 26 8 14 1025.9 - 0.0
31/09:30am 20.2 18.0 10.7 54 5.2 N 13 22 7 12 1026.0 - 0.0
31/09:00am 18.8 16.2 10.7 59 4.4 N 15 24 8 13 1026.4 1026.3 0.0
31/08:30am 16.7 13.7 10.6 67 3.3 N 17 24 9 13 1026.9 - 0.0
31/08:00am 14.8 13.0 10.9 77 2.1 N 11 17 6 9 1026.9 - 0.0
31/07:30am 14.1 12.8 11.3 83 1.5 N 9 15 5 8 1026.7 - 0.0
31/07:00am 12.6 11.8 11.1 91 0.8 N 6 9 3 5 1026.7 - 0.0
31/06:30am 11.1 10.4 10.1 94 0.5 N 4 6 2 3 1026.4 - 0.0
31/06:00am 11.9 10.8 10.6 92 0.7 NNE 7 9 4 5 1026.0 1025.9 0.0
31/05:30am 12.1 12.3 10.6 90 0.8 CALM 0 6 0 3 1026.0 - 0.0
31/05:00am 12.8 11.8 10.9 88 1.0 N 7 11 4 6 1025.4 - 0.0
31/04:30am 13.3 11.1 10.8 85 1.3 NNE 13 24 7 13 1024.8 - 0.0
31/04:00am 13.5 11.3 10.7 83 1.5 NNE 13 20 7 11 1024.5 - 0.0
31/03:30am 13.7 11.9 10.7 82 1.6 NNE 11 17 6 9 1024.7 - 0.0
31/03:00am 14.0 11.7 10.6 80 1.8 N 13 20 7 11 1024.8 1024.7 0.0
31/02:30am 14.3 12.5 10.7 79 1.9 N 11 19 6 10 1025.2 - 0.0
31/02:00am 14.6 12.8 10.7 77 2.1 N 11 19 6 10 1025.2 - 0.0
31/01:30am 15.1 12.8 10.6 74 2.4 N 13 20 7 11 1024.9 - 0.0
31/01:00am 15.5 13.2 10.4 71 2.7 N 13 19 7 10 1025.5 - 0.0
31/12:30am 15.7 13.6 9.8 68 3.1 N 11 19 6 10 1025.7 - 0.0
31/12:00am 16.1 14.9 9.6 65 3.4 N 6 13 3 7 1025.7 1025.6 0.0
 
Date/Time
EST
Temp
°C
App
Temp
°C
Dew
Point
°C
Rel
Hum
%
Delta-T
°C
Wind Press
QNH
hPa
Press
MSL
hPa
Rain since
9am
mm
Dir  Spd
km/h
Gust
km/h
Spd
kts
Gust
kts
30/11:30pm 16.7 14.6 9.7 63 3.7 N 11 19 6 10 1025.1 - 0.0
30/11:00pm 17.0 14.4 9.4 61 4.0 N 13 24 7 13 1024.9 - 0.0
30/10:30pm 17.6 14.2 9.3 58 4.4 NNE 17 26 9 14 1024.6 - 0.0
30/10:00pm 18.0 14.8 8.6 54 4.9 NNE 15 24 8 13 1024.9 - 0.0
30/09:30pm 18.5 15.7 8.6 52 5.2 NNE 13 20 7 11 1025.1 - 0.0
30/09:00pm 18.4 16.0 8.7 53 5.1 NNE 11 20 6 11 1024.9 1024.8 0.0
30/08:30pm 17.6 16.1 9.0 57 4.5 NNE 7 13 4 7 1025.1 - 0.0
30/08:00pm 16.5 15.1 9.5 63 3.7 NNE 7 9 4 5 1025.1 - 0.0
30/07:30pm 16.8 16.2 10.3 65 3.5 NNE 4 7 2 4 1024.7 - 0.0
30/07:00pm 18.1 17.4 10.1 59 4.3 NNE 4 7 2 4 1024.5 - 0.0
30/06:30pm 18.9 19.0 10.0 56 4.8 CALM 0 7 0 4 1024.0 - 0.0
30/06:00pm 20.4 19.9 10.8 54 5.3 N 4 7 2 4 1023.6 1023.5 0.0
30/05:30pm 22.0 20.0 8.8 43 7.1 N 9 15 5 8 1023.4 - 0.0
30/05:00pm 23.3 20.4 8.1 37 8.1 NNE 13 22 7 12 1023.2 - 0.0
30/04:30pm 23.9 20.9 7.7 35 8.6 N 13 20 7 11 1023.2 - 0.0
30/04:00pm 24.1 21.1 7.8 35 8.7 NNE 13 20 7 11 1023.0 - 0.0
30/03:30pm 24.4 21.5 8.0 35 8.8 N 13 20 7 11 1023.1 - 0.0
30/03:00pm 24.5 21.9 7.9 34 8.9 N 11 17 6 9 1023.4 1023.3 0.0
30/02:30pm 23.8 20.3 7.3 34 8.7 NNE 15 28 8 15 1023.6 - 0.0
30/02:00pm 24.2 20.6 8.2 36 8.6 NNE 17 28 9 15 1024.4 - 0.0
30/01:30pm 23.5 20.8 8.9 39 7.9 NNE 13 20 7 11 1024.6 - 0.0
30/01:00pm 22.8 19.5 7.9 38 7.9 NNE 15 20 8 11 1025.3 - 0.0
30/12:30pm 22.4 19.3 8.8 41 7.3 NE 15 26 8 14 1025.7 - 0.0
30/12:00pm 21.2 18.1 8.8 45 6.6 ENE 15 24 8 13 1026.3 1026.2 0.0
30/11:30am 20.8 18.2 9.2 47 6.3 ENE 13 24 7 13 1027.0 - 0.0
30/11:00am 18.9 15.4 8.8 52 5.3 ENE 17 30 9 16 1027.4 - 0.0
30/10:30am 19.4 16.5 9.5 52 5.3 NE 15 24 8 13 1028.0 - 0.0
30/10:00am 18.6 14.8 9.1 54 5.0 NNE 19 28 10 15 1028.0 - 0.0
30/09:30am 17.7 13.8 9.6 59 4.3 NE 20 30 11 16 1028.4 - 0.0
30/09:00am 16.6 14.4 10.9 69 3.1 NE 13 26 7 14 1028.6 1028.5 0.0
30/08:30am 15.8 14.0 11.0 73 2.6 NE 11 24 6 13 1028.5 - 0.0
30/08:00am 14.4 12.2 10.8 79 1.9 NNE 13 19 7 10 1028.0 - 0.0
30/07:30am 14.1 13.0 10.7 80 1.8 E 7 11 4 6 1027.6 - 0.0
30/07:00am 10.9 10.9 9.9 93 0.5 CALM 0 0 0 0 1027.1 - 0.0
30/06:30am 10.6 10.5 9.6 93 0.5 CALM 0 0 0 0 1026.4 - 0.0
30/06:00am 11.3 10.2 9.9 91 0.7 NE 6 9 3 5 1025.8 1025.7 0.0
30/05:30am 11.3 10.0 9.9 91 0.7 N 7 11 4 6 1025.2 - 0.0
30/05:00am 11.2 9.9 9.8 91 0.7 N 7 9 4 5 1024.7 - 0.0
30/04:30am 11.2 9.9 9.8 91 0.7 N 7 11 4 6 1024.1 - 0.0
30/04:00am 11.9 10.2 10.0 88 1.0 N 9 13 5 7 1023.7 - 0.0
30/03:30am 11.7 10.4 9.8 88 1.0 N 7 9 4 5 1023.5 - 0.0
30/03:00am 11.7 10.4 9.8 88 1.0 N 7 9 4 5 1023.6 1023.5 0.0
30/02:30am 12.3 10.9 9.6 83 1.4 N 7 9 4 5 1023.9 - 0.0
30/02:00am 13.5 11.7 9.6 77 2.0 N 9 13 5 7 1024.1 - 0.0
30/01:30am 14.1 12.0 9.7 75 2.3 N 11 17 6 9 1024.6 - 0.0
30/01:00am 14.3 12.1 9.3 72 2.6 N 11 15 6 8 1024.7 - 0.0
30/12:30am 14.4 12.0 8.5 67 3.0 N 11 17 6 9 1024.7 - 0.0
30/12:00am 13.8 12.0 7.8 67 3.0 N 7 13 4 7 1024.9 1024.8 0.0
 
Date/Time
EST
Temp
°C
App
Temp
°C
Dew
Point
°C
Rel
Hum
%
Delta-T
°C
Wind Press
QNH
hPa
Press
MSL
hPa
Rain since
9am
mm
Dir  Spd
km/h
Gust
km/h
Spd
kts
Gust
kts
29/11:30pm 15.2 12.8 6.9 57 4.1 NNE 9 15 5 8 1024.7 - 0.0
29/11:00pm 15.8 12.6 6.7 54 4.5 NNE 13 20 7 11 1024.7 - 0.0
29/10:51pm 15.6 12.3 6.2 53 4.6 NNE 13 19 7 10 1024.7 - 0.0
29/10:30pm 10.6 8.6 7.3 80 1.6 NNE 7 11 4 6 1024.8 - 0.0
29/10:00pm 10.6 10.1 7.7 82 1.4 CALM 0 0 0 0 1024.8 - 0.0
29/09:30pm 11.0 10.5 7.7 80 1.6 CALM 0 0 0 0 1024.6 - 0.0
29/09:00pm 11.7 11.1 7.4 75 2.1 CALM 0 0 0 0 1024.4 1024.3 0.0
29/08:30pm 12.3 11.7 7.2 71 2.5 CALM 0 0 0 0 1024.4 - 0.0
29/08:00pm 13.1 12.5 7.2 67 2.9 CALM 0 0 0 0 1024.1 - 0.0
29/07:30pm 14.4 13.8 7.6 63 3.4 CALM 0 0 0 0 1024.1 - 0.0
29/07:00pm 15.9 15.3 7.6 58 4.2 CALM 0 0 0 0 1023.8 - 0.0
29/06:30pm 17.8 17.3 7.9 52 5.1 CALM 0 4 0 2 1023.4 - 0.0
29/06:00pm 19.2 17.6 7.8 47 5.9 N 6 7 3 4 1023.1 1023.0 0.0
29/05:30pm 21.8 19.5 5.8 35 8.1 N 7 9 4 5 1022.9 - 0.0
29/05:00pm 23.2 19.8 4.0 28 9.5 N 11 15 6 8 1022.7 - 0.0
29/04:30pm 23.9 19.8 2.0 24 10.5 N 13 20 7 11 1022.6 - 0.0
29/04:00pm 24.8 21.3 3.4 25 10.6 N 11 17 6 9 1022.4 - 0.0
29/03:30pm 24.4 21.3 3.6 26 10.3 N 9 19 5 10 1022.4 - 0.0
29/03:00pm 24.4 21.3 3.6 26 10.3 NE 9 20 5 11 1022.6 1022.5 0.0
29/02:30pm 24.4 22.2 5.2 29 9.8 W 6 9 3 5 1022.7 - 0.0
29/02:00pm 24.3 21.1 3.1 25 10.4 NE 9 17 5 9 1023.1 - 0.0
29/01:30pm 24.1 21.5 3.4 26 10.2 N 6 17 3 9 1023.4 - 0.0
29/01:00pm 23.7 21.1 4.3 28 9.7 N 7 15 4 8 1023.7 - 0.0
29/12:30pm 22.7 19.4 4.4 30 9.1 N 11 20 6 11 1024.4 - 0.0
29/12:00pm 22.8 19.5 4.5 30 9.1 NE 11 28 6 15 1024.8 1024.7 0.0
29/11:30am 22.0 18.8 5.0 33 8.5 N 11 17 6 9 1025.2 - 0.0
29/11:00am 21.0 17.7 4.5 34 8.2 NNE 11 20 6 11 1025.6 - 0.0
29/10:30am 20.4 17.2 5.3 37 7.5 N 11 19 6 10 1025.7 - 0.0
29/10:00am 18.9 15.5 5.8 42 6.5 NNE 13 20 7 11 1026.4 - 0.0
29/09:30am 17.5 14.5 6.2 47 5.6 N 11 17 6 9 1026.8 - 0.0
29/09:00am 15.1 12.2 6.3 55 4.3 N 11 20 6 11 1026.7 1026.6 0.0
29/08:30am 13.2 10.7 6.4 63 3.3 N 9 15 5 8 1026.7 - 0.0
29/08:00am 10.1 8.0 6.0 76 1.9 N 6 9 3 5 1026.6 - 0.0
29/07:30am 7.1 5.3 5.3 88 0.8 N 4 7 2 4 1026.1 - 0.0
29/07:00am 4.7 3.4 4.2 97 0.2 CALM 0 0 0 0 1025.6 - 0.0
29/06:30am 3.3 1.8 2.8 97 0.2 CALM 0 0 0 0 1024.9 - 0.0
29/06:00am 3.3 1.8 3.1 99 0.1 CALM 0 0 0 0 1024.7 1024.6 0.0
29/05:30am 3.7 2.2 3.2 97 0.2 CALM 0 0 0 0 1024.1 - 0.0
29/05:00am 3.9 2.5 3.4 97 0.2 CALM 0 0 0 0 1023.4 - 0.0
29/04:30am 4.2 2.4 3.7 97 0.2 NNE 2 7 1 4 1023.0 - 0.0
29/04:00am 4.1 1.9 3.6 97 0.2 N 4 6 2 3 1023.2 - 0.0
29/03:30am 4.3 2.9 3.8 97 0.2 CALM 0 0 0 0 1023.2 - 0.0
29/03:00am 4.5 3.2 4.0 97 0.2 CALM 0 0 0 0 1023.5 1023.4 0.0
29/02:30am 4.7 3.4 4.2 97 0.2 CALM 0 0 0 0 1023.6 - 0.0
29/02:00am 4.9 3.6 4.2 95 0.3 CALM 0 0 0 0 1023.7 - 0.0
29/01:30am 5.2 3.9 4.3 94 0.4 CALM 0 0 0 0 1023.8 - 0.0
29/01:00am 5.4 4.2 4.7 95 0.3 CALM 0 0 0 0 1023.9 - 0.0
29/12:30am 5.8 4.7 4.9 94 0.4 CALM 0 0 0 0 1024.0 - 0.0

Other Formats:

Comma delimited format used in spreadsheet applications
http://www.bom.gov.au/fwo/IDQ60801/IDQ60801.95529.axf

JavaScript Object Notation format (JSON) in row-major order
http://www.bom.gov.au/fwo/IDQ60801/IDQ60801.95529.json